PWSweather.com
Personal Weather Stations
Station Observations
WAREHAM1
West Wareham, MA 02576

West Wareham, MA 02576

Lat: 41.7961059, Lon: -70.775612

Elevation: 88

Station Type: Davis Vantage Vue

http://www.gateway2capecod.com

High Low Average
Temperature 41.5°F5.3°C 35.1°F1.7°C 38.4°F3.6°C
Dew Point 40.5°F4.7°C 30.9°F-0.6°C 35.7°F2.1°C
Winds 4.9 mph 7.9 kmh Calm Calm 2.0 mph SW3.2 kmh SW
Wind Gusts 16.1 mph25.9 kmh 2.0 mph3.2 kmh 8.0 mph12.9 kmh
Humidity 96% 78% 90%
Pressure 29.67 in1004.7 mb 29.54 in1000.3 mb -
Precipitation 0.08 in2.0 mm - -
Hour Temp Dew Point Humidity Winds Wind Gusts Pressure Precip Precip Rate Daily Precip Total
12:09 AM 41.5°F5.3°C 40.5°F4.7°C 96% 4.0 mph NE6.4 kmh NE 13.0 mph20.9 kmh 29.67 in1004.7 mb 0.03 in0.8 mm 0.20 in5.1 mm 0.01 in0.3 mm
12:19 AM 41.5°F5.3°C 40.5°F4.7°C 96% 4.9 mph N7.9 kmh N 15.0 mph24.1 kmh 29.66 in1004.4 mb 0.03 in0.8 mm 0.00 in0.0 mm 0.01 in0.3 mm
12:29 AM 41.5°F5.3°C 40.5°F4.7°C 96% 4.0 mph NE6.4 kmh NE 12.1 mph19.5 kmh 29.65 in1004.1 mb 0.02 in0.5 mm 0.00 in0.0 mm 0.01 in0.3 mm
12:39 AM 41.5°F5.3°C 40.5°F4.7°C 96% 4.0 mph NE6.4 kmh NE 11.0 mph17.7 kmh 29.65 in1004.1 mb 0.03 in0.8 mm 0.06 in1.5 mm 0.02 in0.5 mm
12:49 AM 41.5°F5.3°C 40.5°F4.7°C 96% 2.9 mph ENE4.7 kmh ENE 8.9 mph14.3 kmh 29.65 in1004.1 mb 0.02 in0.5 mm 0.00 in0.0 mm 0.02 in0.5 mm
12:59 AM 41.5°F5.3°C 40.5°F4.7°C 96% 2.9 mph NE4.7 kmh NE 10.1 mph16.3 kmh 29.65 in1004.1 mb 0.02 in0.5 mm 0.00 in0.0 mm 0.02 in0.5 mm
01:09 AM 41.5°F5.3°C 40.5°F4.7°C 96% 2.9 mph NE4.7 kmh NE 8.9 mph14.3 kmh 29.64 in1003.7 mb 0.02 in0.5 mm 0.00 in0.0 mm 0.03 in0.8 mm
01:19 AM 41.5°F5.3°C 40.5°F4.7°C 96% 2.9 mph NE4.7 kmh NE 12.1 mph19.5 kmh 29.63 in1003.4 mb 0.02 in0.5 mm 0.00 in0.0 mm 0.03 in0.8 mm
01:29 AM 41.5°F5.3°C 40.5°F4.7°C 96% 4.0 mph E6.4 kmh E 11.0 mph17.7 kmh 29.63 in1003.4 mb 0.02 in0.5 mm 0.00 in0.0 mm 0.03 in0.8 mm
01:39 AM 41.5°F5.3°C 40.5°F4.7°C 96% 2.9 mph E4.7 kmh E 11.0 mph17.7 kmh 29.63 in1003.4 mb 0.01 in0.3 mm 0.00 in0.0 mm 0.03 in0.8 mm
01:49 AM 41.5°F5.3°C 40.5°F4.7°C 96% 2.9 mph ENE4.7 kmh ENE 12.1 mph19.5 kmh 29.63 in1003.4 mb 0.02 in0.5 mm 0.06 in1.5 mm 0.04 in1.0 mm
01:59 AM 41.5°F5.3°C 40.5°F4.7°C 96% 4.0 mph N6.4 kmh N 13.0 mph20.9 kmh 29.62 in1003.0 mb 0.02 in0.5 mm 0.00 in0.0 mm 0.04 in1.0 mm
02:09 AM 41.5°F5.3°C 40.5°F4.7°C 96% 2.9 mph N4.7 kmh N 16.1 mph25.9 kmh 29.62 in1003.0 mb 0.01 in0.3 mm 0.00 in0.0 mm 0.04 in1.0 mm
02:19 AM 41.5°F5.3°C 40.5°F4.7°C 96% 2.9 mph NE4.7 kmh NE 12.1 mph19.5 kmh 29.62 in1003.0 mb 0.01 in0.3 mm 0.00 in0.0 mm 0.04 in1.0 mm
02:29 AM 41.5°F5.3°C 40.5°F4.7°C 96% 4.0 mph NE6.4 kmh NE 12.1 mph19.5 kmh 29.62 in1003.0 mb 0.01 in0.3 mm 0.00 in0.0 mm 0.04 in1.0 mm
02:39 AM 41.5°F5.3°C 40.5°F4.7°C 96% 2.9 mph NE4.7 kmh NE 15.0 mph24.1 kmh 29.61 in1002.7 mb 0.01 in0.3 mm 0.00 in0.0 mm 0.04 in1.0 mm
02:49 AM 41.5°F5.3°C 40.5°F4.7°C 96% 4.0 mph NE6.4 kmh NE 15.0 mph24.1 kmh 29.61 in1002.7 mb 0.00 in0.0 mm 0.00 in0.0 mm 0.04 in1.0 mm
02:59 AM 41.5°F5.3°C 40.5°F4.7°C 96% 4.0 mph ENE6.4 kmh ENE 14.1 mph22.7 kmh 29.61 in1002.7 mb 0.01 in0.3 mm 0.06 in1.5 mm 0.05 in1.3 mm
03:09 AM 41.5°F5.3°C 40.5°F4.7°C 96% 2.9 mph WNW4.7 kmh WNW 15.0 mph24.1 kmh 29.60 in1002.4 mb 0.01 in0.3 mm 0.00 in0.0 mm 0.05 in1.3 mm
03:19 AM 41.5°F5.3°C 40.5°F4.7°C 96% 2.0 mph W3.2 kmh W 6.9 mph11.1 kmh 29.61 in1002.7 mb 0.01 in0.3 mm 0.00 in0.0 mm 0.05 in1.3 mm
03:29 AM 41.5°F5.3°C 40.5°F4.7°C 96% 2.0 mph E3.2 kmh E 11.0 mph17.7 kmh 29.61 in1002.7 mb 0.01 in0.3 mm 0.00 in0.0 mm 0.05 in1.3 mm
03:39 AM 41.5°F5.3°C 40.5°F4.7°C 96% 2.9 mph NW4.7 kmh NW 12.1 mph19.5 kmh 29.60 in1002.4 mb 0.02 in0.5 mm 0.06 in1.5 mm 0.06 in1.5 mm
03:49 AM 41.4°F5.2°C 40.3°F4.6°C 96% 2.0 mph NE3.2 kmh NE 8.9 mph14.3 kmh 29.60 in1002.4 mb 0.02 in0.5 mm 0.00 in0.0 mm 0.06 in1.5 mm
03:59 AM 41.4°F5.2°C 40.3°F4.6°C 96% 2.0 mph NNW3.2 kmh NNW 10.1 mph16.3 kmh 29.60 in1002.4 mb 0.01 in0.3 mm 0.00 in0.0 mm 0.06 in1.5 mm
04:09 AM 41.4°F5.2°C 40.3°F4.6°C 96% 2.9 mph NW4.7 kmh NW 10.1 mph16.3 kmh 29.60 in1002.4 mb 0.01 in0.3 mm 0.00 in0.0 mm 0.06 in1.5 mm
04:19 AM 41.4°F5.2°C 40.3°F4.6°C 96% 2.0 mph NW3.2 kmh NW 8.1 mph13.0 kmh 29.60 in1002.4 mb 0.01 in0.3 mm 0.00 in0.0 mm 0.06 in1.5 mm
04:29 AM 41.4°F5.2°C 40.3°F4.6°C 96% 2.0 mph NE3.2 kmh NE 13.0 mph20.9 kmh 29.60 in1002.4 mb 0.01 in0.3 mm 0.00 in0.0 mm 0.06 in1.5 mm
04:39 AM 41.4°F5.2°C 40.3°F4.6°C 96% 2.0 mph WNW3.2 kmh WNW 8.9 mph14.3 kmh 29.59 in1002.0 mb 0.00 in0.0 mm 0.00 in0.0 mm 0.06 in1.5 mm
04:49 AM 41.2°F5.1°C 40.1°F4.5°C 96% 2.9 mph NNW4.7 kmh NNW 8.0 mph12.9 kmh 29.59 in1002.0 mb 0.01 in0.3 mm 0.06 in1.5 mm 0.07 in1.8 mm
04:59 AM 40.8°F4.9°C 39.7°F4.3°C 96% 2.9 mph NNW4.7 kmh NNW 9.0 mph14.5 kmh 29.60 in1002.4 mb 0.01 in0.3 mm 0.00 in0.0 mm 0.07 in1.8 mm
05:09 AM 40.6°F4.8°C 39.6°F4.2°C 96% 2.9 mph NNW4.7 kmh NNW 11.0 mph17.7 kmh 29.60 in1002.4 mb 0.01 in0.3 mm 0.00 in0.0 mm 0.07 in1.8 mm
05:19 AM 40.5°F4.7°C 39.4°F4.1°C 96% 2.9 mph WNW4.7 kmh WNW 8.1 mph13.0 kmh 29.59 in1002.0 mb 0.01 in0.3 mm 0.00 in0.0 mm 0.07 in1.8 mm
05:29 AM 40.1°F4.5°C 39.0°F3.9°C 96% 4.0 mph NE6.4 kmh NE 14.1 mph22.7 kmh 29.59 in1002.0 mb 0.01 in0.3 mm 0.00 in0.0 mm 0.07 in1.8 mm
05:39 AM 39.9°F4.4°C 38.8°F3.8°C 96% 2.9 mph W4.7 kmh W 8.1 mph13.0 kmh 29.60 in1002.4 mb 0.01 in0.3 mm 0.00 in0.0 mm 0.07 in1.8 mm
05:49 AM 39.7°F4.3°C 38.7°F3.7°C 96% 2.0 mph NW3.2 kmh NW 8.0 mph12.9 kmh 29.60 in1002.4 mb 0.00 in0.0 mm 0.00 in0.0 mm 0.07 in1.8 mm
05:59 AM 39.7°F4.3°C 38.7°F3.7°C 96% 2.0 mph NW3.2 kmh NW 6.0 mph9.7 kmh 29.60 in1002.4 mb 0.00 in0.0 mm 0.00 in0.0 mm 0.07 in1.8 mm
06:09 AM 39.4°F4.1°C 38.3°F3.5°C 96% 2.9 mph WNW4.7 kmh WNW 8.1 mph13.0 kmh 29.61 in1002.7 mb 0.00 in0.0 mm 0.00 in0.0 mm 0.07 in1.8 mm
06:19 AM 39.0°F3.9°C 37.9°F3.3°C 96% 2.9 mph NNW4.7 kmh NNW 8.0 mph12.9 kmh 29.60 in1002.4 mb 0.00 in0.0 mm 0.00 in0.0 mm 0.07 in1.8 mm
06:29 AM 38.8°F3.8°C 37.8°F3.2°C 96% 2.0 mph NW3.2 kmh NW 10.1 mph16.3 kmh 29.60 in1002.4 mb 0.01 in0.3 mm 0.06 in1.5 mm 0.08 in2.0 mm
06:39 AM 38.7°F3.7°C 37.6°F3.1°C 96% 2.9 mph ENE4.7 kmh ENE 10.1 mph16.3 kmh 29.61 in1002.7 mb 0.01 in0.3 mm 0.00 in0.0 mm 0.08 in2.0 mm
06:49 AM 38.1°F3.4°C 37.0°F2.8°C 96% 2.0 mph WNW3.2 kmh WNW 12.0 mph19.3 kmh 29.61 in1002.7 mb 0.01 in0.3 mm 0.00 in0.0 mm 0.08 in2.0 mm
06:59 AM 37.0°F2.8°C 35.8°F2.1°C 95% 2.0 mph NW3.2 kmh NW 4.0 mph6.4 kmh 29.61 in1002.7 mb 0.01 in0.3 mm 0.00 in0.0 mm 0.08 in2.0 mm
07:09 AM 36.1°F2.3°C 34.9°F1.6°C 95% 2.9 mph W4.7 kmh W 8.9 mph14.3 kmh 29.61 in1002.7 mb 0.01 in0.3 mm 0.00 in0.0 mm 0.08 in2.0 mm
07:19 AM 35.8°F2.1°C 34.7°F1.5°C 96% 2.9 mph WNW4.7 kmh WNW 6.9 mph11.1 kmh 29.62 in1003.0 mb 0.01 in0.3 mm 0.00 in0.0 mm 0.08 in2.0 mm
07:29 AM 35.4°F1.9°C 34.3°F1.3°C 96% 2.0 mph W3.2 kmh W 6.0 mph9.7 kmh 29.62 in1003.0 mb 0.00 in0.0 mm 0.00 in0.0 mm 0.08 in2.0 mm
07:39 AM 35.2°F1.8°C 34.2°F1.2°C 96% 2.9 mph NNW4.7 kmh NNW 9.0 mph14.5 kmh 29.62 in1003.0 mb 0.00 in0.0 mm 0.00 in0.0 mm 0.08 in2.0 mm
07:49 AM 35.1°F1.7°C 34.0°F1.1°C 96% 2.9 mph NW4.7 kmh NW 4.9 mph7.9 kmh 29.62 in1003.0 mb 0.00 in0.0 mm 0.00 in0.0 mm 0.08 in2.0 mm
07:59 AM 35.1°F1.7°C 34.0°F1.1°C 96% 2.0 mph NW3.2 kmh NW 6.0 mph9.7 kmh 29.62 in1003.0 mb 0.00 in0.0 mm 0.00 in0.0 mm 0.08 in2.0 mm
08:09 AM 35.1°F1.7°C 34.0°F1.1°C 96% 2.9 mph NW4.7 kmh NW 8.1 mph13.0 kmh 29.61 in1002.7 mb 0.00 in0.0 mm 0.00 in0.0 mm 0.08 in2.0 mm
08:19 AM 35.2°F1.8°C 34.2°F1.2°C 96% 2.0 mph NNW3.2 kmh NNW 6.0 mph9.7 kmh 29.62 in1003.0 mb 0.00 in0.0 mm 0.00 in0.0 mm 0.08 in2.0 mm
08:29 AM 35.2°F1.8°C 34.2°F1.2°C 96% 2.9 mph NW4.7 kmh NW 7.0 mph11.3 kmh 29.62 in1003.0 mb 0.00 in0.0 mm 0.00 in0.0 mm 0.08 in2.0 mm
08:39 AM 35.2°F1.8°C 34.2°F1.2°C 96% 2.9 mph NW4.7 kmh NW 6.9 mph11.1 kmh 29.62 in1003.0 mb 0.00 in0.0 mm 0.00 in0.0 mm 0.08 in2.0 mm
08:49 AM 35.2°F1.8°C 34.2°F1.2°C 96% 2.9 mph NW4.7 kmh NW 9.0 mph14.5 kmh 29.63 in1003.4 mb 0.00 in0.0 mm 0.00 in0.0 mm 0.08 in2.0 mm
08:59 AM 35.2°F1.8°C 34.2°F1.2°C 96% 2.9 mph NW4.7 kmh NW 8.9 mph14.3 kmh 29.63 in1003.4 mb 0.00 in0.0 mm 0.00 in0.0 mm 0.08 in2.0 mm
09:09 AM 35.2°F1.8°C 34.2°F1.2°C 96% 2.0 mph NW3.2 kmh NW 8.1 mph13.0 kmh 29.63 in1003.4 mb 0.00 in0.0 mm 0.00 in0.0 mm 0.08 in2.0 mm
09:19 AM 35.4°F1.9°C 34.3°F1.3°C 96% 2.0 mph NW3.2 kmh NW 6.9 mph11.1 kmh 29.64 in1003.7 mb 0.00 in0.0 mm 0.00 in0.0 mm 0.08 in2.0 mm
09:29 AM 35.6°F2.0°C 34.5°F1.4°C 96% 2.9 mph NNW4.7 kmh NNW 9.0 mph14.5 kmh 29.63 in1003.4 mb 0.00 in0.0 mm 0.00 in0.0 mm 0.08 in2.0 mm
09:39 AM 35.8°F2.1°C 34.7°F1.5°C 96% 0.9 mph NW1.4 kmh NW 6.0 mph9.7 kmh 29.64 in1003.7 mb 0.00 in0.0 mm 0.00 in0.0 mm 0.08 in2.0 mm
09:49 AM 36.0°F2.2°C 34.9°F1.6°C 96% 2.0 mph NW3.2 kmh NW 6.0 mph9.7 kmh 29.64 in1003.7 mb 0.00 in0.0 mm 0.00 in0.0 mm 0.08 in2.0 mm
09:59 AM 36.1°F2.3°C 35.1°F1.7°C 96% 2.9 mph NW4.7 kmh NW 8.1 mph13.0 kmh 29.63 in1003.4 mb 0.00 in0.0 mm 0.00 in0.0 mm 0.08 in2.0 mm
10:09 AM 36.5°F2.5°C 35.4°F1.9°C 96% 2.0 mph WSW3.2 kmh WSW 6.0 mph9.7 kmh 29.62 in1003.0 mb 0.00 in0.0 mm 0.00 in0.0 mm 0.08 in2.0 mm
10:19 AM 36.5°F2.5°C 35.4°F1.9°C 96% 0.9 mph NW1.4 kmh NW 8.9 mph14.3 kmh 29.61 in1002.7 mb 0.00 in0.0 mm 0.00 in0.0 mm 0.08 in2.0 mm
10:29 AM 36.9°F2.7°C 35.8°F2.1°C 96% 2.0 mph WSW3.2 kmh WSW 8.9 mph14.3 kmh 29.61 in1002.7 mb 0.00 in0.0 mm 0.00 in0.0 mm 0.08 in2.0 mm
10:39 AM 37.0°F2.8°C 36.0°F2.2°C 96% 0.9 mph WSW1.4 kmh WSW 5.0 mph8.0 kmh 29.60 in1002.4 mb 0.00 in0.0 mm 0.00 in0.0 mm 0.08 in2.0 mm
10:49 AM 37.4°F3.0°C 36.3°F2.4°C 96% 0.9 mph NNW1.4 kmh NNW 5.0 mph8.0 kmh 29.60 in1002.4 mb 0.00 in0.0 mm 0.00 in0.0 mm 0.08 in2.0 mm
10:59 AM 37.6°F3.1°C 36.3°F2.4°C 95% 2.0 mph W3.2 kmh W 6.9 mph11.1 kmh 29.60 in1002.4 mb 0.00 in0.0 mm 0.00 in0.0 mm 0.08 in2.0 mm
11:09 AM 37.4°F3.0°C 35.8°F2.1°C 94% 2.0 mph NW3.2 kmh NW 6.9 mph11.1 kmh 29.59 in1002.0 mb 0.00 in0.0 mm 0.00 in0.0 mm 0.08 in2.0 mm
11:19 AM 37.6°F3.1°C 36.3°F2.4°C 95% 0.9 mph WNW1.4 kmh WNW 4.9 mph7.9 kmh 29.58 in1001.7 mb 0.00 in0.0 mm 0.00 in0.0 mm 0.08 in2.0 mm
11:29 AM 37.6°F3.1°C 36.0°F2.2°C 94% 0.9 mph NW1.4 kmh NW 6.0 mph9.7 kmh 29.58 in1001.7 mb 0.00 in0.0 mm 0.00 in0.0 mm 0.08 in2.0 mm
11:39 AM 37.2°F2.9°C 35.6°F2.0°C 94% 2.0 mph NW3.2 kmh NW 6.0 mph9.7 kmh 29.58 in1001.7 mb 0.00 in0.0 mm 0.00 in0.0 mm 0.08 in2.0 mm
11:49 AM 37.2°F2.9°C 35.6°F2.0°C 94% 2.0 mph WSW3.2 kmh WSW 7.0 mph11.3 kmh 29.58 in1001.7 mb 0.00 in0.0 mm 0.00 in0.0 mm 0.08 in2.0 mm
11:59 AM 37.0°F2.8°C 35.2°F1.8°C 93% 2.0 mph W3.2 kmh W 8.1 mph13.0 kmh 29.57 in1001.4 mb 0.00 in0.0 mm 0.00 in0.0 mm 0.08 in2.0 mm
12:09 PM 37.0°F2.8°C 35.2°F1.8°C 93% 2.0 mph WSW3.2 kmh WSW 6.0 mph9.7 kmh 29.57 in1001.4 mb 0.00 in0.0 mm 0.00 in0.0 mm 0.08 in2.0 mm
12:19 PM 37.2°F2.9°C 35.4°F1.9°C 93% 0.9 mph WNW1.4 kmh WNW 6.9 mph11.1 kmh 29.57 in1001.4 mb 0.00 in0.0 mm 0.00 in0.0 mm 0.08 in2.0 mm
12:29 PM 37.6°F3.1°C 35.8°F2.1°C 93% 0.9 mph WNW1.4 kmh WNW 7.0 mph11.3 kmh 29.57 in1001.4 mb 0.00 in0.0 mm 0.00 in0.0 mm 0.08 in2.0 mm
12:39 PM 37.6°F3.1°C 35.8°F2.1°C 93% 0.9 mph W1.4 kmh W 6.0 mph9.7 kmh 29.57 in1001.4 mb 0.00 in0.0 mm 0.00 in0.0 mm 0.08 in2.0 mm
12:49 PM 37.8°F3.2°C 36.0°F2.2°C 93% 0.9 mph WSW1.4 kmh WSW 7.0 mph11.3 kmh 29.57 in1001.4 mb 0.00 in0.0 mm 0.00 in0.0 mm 0.08 in2.0 mm
12:59 PM 37.8°F3.2°C 36.1°F2.3°C 94% 2.0 mph NW3.2 kmh NW 10.1 mph16.3 kmh 29.56 in1001.0 mb 0.00 in0.0 mm 0.00 in0.0 mm 0.08 in2.0 mm
01:09 PM 37.9°F3.3°C 36.3°F2.4°C 94% 0.9 mph WNW1.4 kmh WNW 2.9 mph4.7 kmh 29.55 in1000.7 mb 0.00 in0.0 mm 0.00 in0.0 mm 0.08 in2.0 mm
01:19 PM 38.3°F3.5°C 36.7°F2.6°C 94% Calm Calm 2.9 mph4.7 kmh 29.56 in1001.0 mb 0.00 in0.0 mm 0.00 in0.0 mm 0.08 in2.0 mm
01:29 PM 38.5°F3.6°C 36.9°F2.7°C 94% 2.0 mph SW3.2 kmh SW 4.9 mph7.9 kmh 29.55 in1000.7 mb 0.00 in0.0 mm 0.00 in0.0 mm 0.08 in2.0 mm
01:39 PM 38.7°F3.7°C 36.9°F2.7°C 93% 0.9 mph W1.4 kmh W 4.0 mph6.4 kmh 29.56 in1001.0 mb 0.00 in0.0 mm 0.00 in0.0 mm 0.08 in2.0 mm
01:49 PM 38.8°F3.8°C 36.7°F2.6°C 92% 0.9 mph W1.4 kmh W 6.0 mph9.7 kmh 29.56 in1001.0 mb 0.00 in0.0 mm 0.00 in0.0 mm 0.08 in2.0 mm
01:59 PM 39.0°F3.9°C 36.9°F2.7°C 92% 0.9 mph WNW1.4 kmh WNW 2.0 mph3.2 kmh 29.55 in1000.7 mb 0.00 in0.0 mm 0.00 in0.0 mm 0.08 in2.0 mm
02:09 PM 39.0°F3.9°C 36.7°F2.6°C 91% 0.9 mph WSW1.4 kmh WSW 4.9 mph7.9 kmh 29.55 in1000.7 mb 0.00 in0.0 mm 0.00 in0.0 mm 0.08 in2.0 mm
02:19 PM 39.0°F3.9°C 36.7°F2.6°C 91% Calm Calm 3.0 mph4.8 kmh 29.55 in1000.7 mb 0.00 in0.0 mm 0.00 in0.0 mm 0.08 in2.0 mm
02:29 PM 39.6°F4.2°C 36.5°F2.5°C 89% 0.9 mph NW1.4 kmh NW 7.0 mph11.3 kmh 29.55 in1000.7 mb 0.00 in0.0 mm 0.00 in0.0 mm 0.08 in2.0 mm
02:39 PM 39.9°F4.4°C 35.8°F2.1°C 85% 2.9 mph ENE4.7 kmh ENE 11.0 mph17.7 kmh 29.55 in1000.7 mb 0.00 in0.0 mm 0.00 in0.0 mm 0.08 in2.0 mm
02:49 PM 39.9°F4.4°C 35.2°F1.8°C 83% 2.0 mph WSW3.2 kmh WSW 10.1 mph16.3 kmh 29.56 in1001.0 mb 0.00 in0.0 mm 0.00 in0.0 mm 0.08 in2.0 mm
02:59 PM 39.7°F4.3°C 35.2°F1.8°C 84% 0.9 mph SW1.4 kmh SW 6.0 mph9.7 kmh 29.54 in1000.3 mb 0.00 in0.0 mm 0.00 in0.0 mm 0.08 in2.0 mm
03:09 PM 39.7°F4.3°C 35.2°F1.8°C 84% 0.9 mph SSE1.4 kmh SSE 6.0 mph9.7 kmh 29.55 in1000.7 mb 0.00 in0.0 mm 0.00 in0.0 mm 0.08 in2.0 mm
03:19 PM 39.7°F4.3°C 35.2°F1.8°C 84% 0.9 mph W1.4 kmh W 5.0 mph8.0 kmh 29.55 in1000.7 mb 0.00 in0.0 mm 0.00 in0.0 mm 0.08 in2.0 mm
03:29 PM 39.6°F4.2°C 35.1°F1.7°C 84% 2.0 mph SSW3.2 kmh SSW 8.0 mph12.9 kmh 29.55 in1000.7 mb 0.00 in0.0 mm 0.00 in0.0 mm 0.08 in2.0 mm
03:39 PM 39.4°F4.1°C 35.2°F1.8°C 85% 0.9 mph WNW1.4 kmh WNW 8.9 mph14.3 kmh 29.55 in1000.7 mb 0.00 in0.0 mm 0.00 in0.0 mm 0.08 in2.0 mm
03:50 PM 39.2°F4.0°C 35.1°F1.7°C 85% 0.9 mph WSW1.4 kmh WSW 2.9 mph4.7 kmh 29.55 in1000.7 mb 0.00 in0.0 mm 0.00 in0.0 mm 0.08 in2.0 mm
04:00 PM 38.8°F3.8°C 34.7°F1.5°C 85% 0.9 mph SSW1.4 kmh SSW 5.0 mph8.0 kmh 29.55 in1000.7 mb 0.00 in0.0 mm 0.00 in0.0 mm 0.08 in2.0 mm
04:10 PM 38.5°F3.6°C 34.7°F1.5°C 86% 0.9 mph WNW1.4 kmh WNW 6.0 mph9.7 kmh 29.55 in1000.7 mb 0.00 in0.0 mm 0.00 in0.0 mm 0.08 in2.0 mm
04:20 PM 38.3°F3.5°C 34.5°F1.4°C 86% 0.9 mph WSW1.4 kmh WSW 4.0 mph6.4 kmh 29.55 in1000.7 mb 0.00 in0.0 mm 0.00 in0.0 mm 0.08 in2.0 mm
04:30 PM 37.9°F3.3°C 34.2°F1.2°C 86% Calm Calm 4.0 mph6.4 kmh 29.55 in1000.7 mb 0.00 in0.0 mm 0.00 in0.0 mm 0.08 in2.0 mm
04:40 PM 37.9°F3.3°C 34.2°F1.2°C 86% Calm Calm 6.9 mph11.1 kmh 29.55 in1000.7 mb 0.00 in0.0 mm 0.00 in0.0 mm 0.08 in2.0 mm
04:50 PM 37.9°F3.3°C 34.3°F1.3°C 87% Calm Calm 4.0 mph6.4 kmh 29.55 in1000.7 mb 0.00 in0.0 mm 0.00 in0.0 mm 0.08 in2.0 mm
05:00 PM 38.1°F3.4°C 34.3°F1.3°C 86% Calm Calm 6.0 mph9.7 kmh 29.56 in1001.0 mb 0.00 in0.0 mm 0.00 in0.0 mm 0.08 in2.0 mm
05:10 PM 38.3°F3.5°C 34.5°F1.4°C 86% 0.9 mph SW1.4 kmh SW 4.9 mph7.9 kmh 29.56 in1001.0 mb 0.00 in0.0 mm 0.00 in0.0 mm 0.08 in2.0 mm
05:20 PM 38.5°F3.6°C 34.7°F1.5°C 86% 0.9 mph S1.4 kmh S 6.0 mph9.7 kmh 29.56 in1001.0 mb 0.00 in0.0 mm 0.00 in0.0 mm 0.08 in2.0 mm
05:30 PM 38.3°F3.5°C 34.5°F1.4°C 86% 0.9 mph WSW1.4 kmh WSW 4.0 mph6.4 kmh 29.56 in1001.0 mb 0.00 in0.0 mm 0.00 in0.0 mm 0.08 in2.0 mm
05:40 PM 38.1°F3.4°C 34.0°F1.1°C 85% 0.9 mph WNW1.4 kmh WNW 6.0 mph9.7 kmh 29.56 in1001.0 mb 0.00 in0.0 mm 0.00 in0.0 mm 0.08 in2.0 mm
05:50 PM 37.9°F3.3°C 33.8°F1.0°C 85% 0.9 mph WSW1.4 kmh WSW 6.0 mph9.7 kmh 29.56 in1001.0 mb 0.00 in0.0 mm 0.00 in0.0 mm 0.08 in2.0 mm
06:00 PM 37.8°F3.2°C 34.0°F1.1°C 86% Calm Calm 2.9 mph4.7 kmh 29.57 in1001.4 mb 0.00 in0.0 mm 0.00 in0.0 mm 0.08 in2.0 mm
06:10 PM 37.8°F3.2°C 34.0°F1.1°C 86% 0.9 mph W1.4 kmh W 4.0 mph6.4 kmh 29.57 in1001.4 mb 0.00 in0.0 mm 0.00 in0.0 mm 0.08 in2.0 mm
06:20 PM 37.8°F3.2°C 33.6°F0.9°C 85% 0.9 mph SW1.4 kmh SW 6.9 mph11.1 kmh 29.57 in1001.4 mb 0.00 in0.0 mm 0.00 in0.0 mm 0.08 in2.0 mm
06:30 PM 37.8°F3.2°C 33.6°F0.9°C 85% 0.9 mph N1.4 kmh N 6.0 mph9.7 kmh 29.57 in1001.4 mb 0.00 in0.0 mm 0.00 in0.0 mm 0.08 in2.0 mm
06:40 PM 37.6°F3.1°C 33.4°F0.8°C 85% 0.9 mph W1.4 kmh W 6.0 mph9.7 kmh 29.57 in1001.4 mb 0.00 in0.0 mm 0.00 in0.0 mm 0.08 in2.0 mm
06:50 PM 37.6°F3.1°C 33.4°F0.8°C 85% 0.9 mph WSW1.4 kmh WSW 2.9 mph4.7 kmh 29.58 in1001.7 mb 0.00 in0.0 mm 0.00 in0.0 mm 0.08 in2.0 mm
07:00 PM 37.6°F3.1°C 33.3°F0.7°C 84% 0.9 mph NE1.4 kmh NE 4.9 mph7.9 kmh 29.58 in1001.7 mb 0.00 in0.0 mm 0.00 in0.0 mm 0.08 in2.0 mm
07:10 PM 37.8°F3.2°C 33.1°F0.6°C 83% 0.9 mph NE1.4 kmh NE 6.0 mph9.7 kmh 29.58 in1001.7 mb 0.00 in0.0 mm 0.00 in0.0 mm 0.08 in2.0 mm
07:20 PM 37.6°F3.1°C 32.9°F0.5°C 83% 0.9 mph WNW1.4 kmh WNW 4.9 mph7.9 kmh 29.58 in1001.7 mb 0.00 in0.0 mm 0.00 in0.0 mm 0.08 in2.0 mm
07:30 PM 37.6°F3.1°C 32.5°F0.3°C 82% 0.9 mph NE1.4 kmh NE 6.0 mph9.7 kmh 29.58 in1001.7 mb 0.00 in0.0 mm 0.00 in0.0 mm 0.08 in2.0 mm
07:40 PM 37.6°F3.1°C 32.4°F0.2°C 81% 0.9 mph W1.4 kmh W 6.0 mph9.7 kmh 29.59 in1002.0 mb 0.00 in0.0 mm 0.00 in0.0 mm 0.08 in2.0 mm
07:50 PM 37.2°F2.9°C 32.2°F0.1°C 82% 0.9 mph W1.4 kmh W 4.0 mph6.4 kmh 29.59 in1002.0 mb 0.00 in0.0 mm 0.00 in0.0 mm 0.08 in2.0 mm
08:00 PM 37.2°F2.9°C 32.0°F0.0°C 81% 0.9 mph WSW1.4 kmh WSW 6.0 mph9.7 kmh 29.59 in1002.0 mb 0.00 in0.0 mm 0.00 in0.0 mm 0.08 in2.0 mm
08:10 PM 37.0°F2.8°C 31.8°F-0.1°C 81% 0.9 mph W1.4 kmh W 4.9 mph7.9 kmh 29.59 in1002.0 mb 0.00 in0.0 mm 0.00 in0.0 mm 0.08 in2.0 mm
08:20 PM 36.9°F2.7°C 31.6°F-0.2°C 81% 0.9 mph SW1.4 kmh SW 6.0 mph9.7 kmh 29.59 in1002.0 mb 0.00 in0.0 mm 0.00 in0.0 mm 0.08 in2.0 mm
08:30 PM 36.7°F2.6°C 31.5°F-0.3°C 81% Calm Calm 2.9 mph4.7 kmh 29.59 in1002.0 mb 0.00 in0.0 mm 0.00 in0.0 mm 0.08 in2.0 mm
08:40 PM 36.9°F2.7°C 31.3°F-0.4°C 80% 2.0 mph WSW3.2 kmh WSW 6.0 mph9.7 kmh 29.59 in1002.0 mb 0.00 in0.0 mm 0.00 in0.0 mm 0.08 in2.0 mm
08:50 PM 36.9°F2.7°C 31.3°F-0.4°C 80% 0.9 mph WNW1.4 kmh WNW 7.0 mph11.3 kmh 29.59 in1002.0 mb 0.00 in0.0 mm 0.00 in0.0 mm 0.08 in2.0 mm
09:00 PM 36.9°F2.7°C 30.9°F-0.6°C 79% 0.9 mph WSW1.4 kmh WSW 7.0 mph11.3 kmh 29.59 in1002.0 mb 0.00 in0.0 mm 0.00 in0.0 mm 0.08 in2.0 mm
09:10 PM 36.9°F2.7°C 30.9°F-0.6°C 79% 0.9 mph E1.4 kmh E 6.0 mph9.7 kmh 29.59 in1002.0 mb 0.00 in0.0 mm 0.00 in0.0 mm 0.08 in2.0 mm
09:20 PM 36.9°F2.7°C 30.9°F-0.6°C 79% 2.0 mph WNW3.2 kmh WNW 8.0 mph12.9 kmh 29.60 in1002.4 mb 0.00 in0.0 mm 0.00 in0.0 mm 0.08 in2.0 mm
09:30 PM 37.0°F2.8°C 31.1°F-0.5°C 79% 0.9 mph W1.4 kmh W 6.9 mph11.1 kmh 29.60 in1002.4 mb 0.00 in0.0 mm 0.00 in0.0 mm 0.08 in2.0 mm
09:40 PM 37.2°F2.9°C 31.3°F-0.4°C 79% 2.0 mph WSW3.2 kmh WSW 7.0 mph11.3 kmh 29.60 in1002.4 mb 0.00 in0.0 mm 0.00 in0.0 mm 0.08 in2.0 mm
09:50 PM 37.4°F3.0°C 31.1°F-0.5°C 78% 2.0 mph WSW3.2 kmh WSW 8.1 mph13.0 kmh 29.59 in1002.0 mb 0.00 in0.0 mm 0.00 in0.0 mm 0.08 in2.0 mm
10:00 PM 37.6°F3.1°C 31.3°F-0.4°C 78% 2.0 mph WSW3.2 kmh WSW 6.9 mph11.1 kmh 29.59 in1002.0 mb 0.00 in0.0 mm 0.00 in0.0 mm 0.08 in2.0 mm
10:10 PM 37.6°F3.1°C 31.3°F-0.4°C 78% 0.9 mph WSW1.4 kmh WSW 6.9 mph11.1 kmh 29.59 in1002.0 mb 0.00 in0.0 mm 0.00 in0.0 mm 0.08 in2.0 mm
10:20 PM 37.6°F3.1°C 31.3°F-0.4°C 78% 0.9 mph W1.4 kmh W 6.9 mph11.1 kmh 29.59 in1002.0 mb 0.00 in0.0 mm 0.00 in0.0 mm 0.08 in2.0 mm
10:30 PM 37.4°F3.0°C 31.1°F-0.5°C 78% 0.9 mph SW1.4 kmh SW 8.1 mph13.0 kmh 29.59 in1002.0 mb 0.00 in0.0 mm 0.00 in0.0 mm 0.08 in2.0 mm
10:40 PM 37.4°F3.0°C 31.1°F-0.5°C 78% 0.9 mph W1.4 kmh W 6.0 mph9.7 kmh 29.59 in1002.0 mb 0.00 in0.0 mm 0.00 in0.0 mm 0.08 in2.0 mm
10:50 PM 37.6°F3.1°C 31.3°F-0.4°C 78% 0.9 mph W1.4 kmh W 6.0 mph9.7 kmh 29.59 in1002.0 mb 0.00 in0.0 mm 0.00 in0.0 mm 0.08 in2.0 mm
11:00 PM 37.6°F3.1°C 31.3°F-0.4°C 78% 0.9 mph SSW1.4 kmh SSW 7.0 mph11.3 kmh 29.58 in1001.7 mb 0.00 in0.0 mm 0.00 in0.0 mm 0.08 in2.0 mm
11:10 PM 37.4°F3.0°C 31.1°F-0.5°C 78% 0.9 mph ESE1.4 kmh ESE 10.1 mph16.3 kmh 29.59 in1002.0 mb 0.00 in0.0 mm 0.00 in0.0 mm 0.08 in2.0 mm
11:20 PM 37.6°F3.1°C 31.3°F-0.4°C 78% 0.9 mph W1.4 kmh W 4.9 mph7.9 kmh 29.59 in1002.0 mb 0.00 in0.0 mm 0.00 in0.0 mm 0.08 in2.0 mm
11:30 PM 37.6°F3.1°C 31.3°F-0.4°C 78% 0.9 mph SSW1.4 kmh SSW 7.0 mph11.3 kmh 29.58 in1001.7 mb 0.00 in0.0 mm 0.00 in0.0 mm 0.08 in2.0 mm
11:40 PM 37.6°F3.1°C 31.3°F-0.4°C 78% 0.9 mph W1.4 kmh W 5.0 mph8.0 kmh 29.57 in1001.4 mb 0.00 in0.0 mm 0.00 in0.0 mm 0.08 in2.0 mm
11:50 PM 37.6°F3.1°C 31.6°F-0.2°C 79% 0.9 mph WSW1.4 kmh WSW 6.0 mph9.7 kmh 29.57 in1001.4 mb 0.00 in0.0 mm 0.00 in0.0 mm 0.08 in2.0 mm